Aviation Digital Data Service (ADDS)

Output produced by METARs form (1438 UTC 23 January 2019)
found at http://www.aviationweather.gov/metar/data/
 
METAR text: KFAT 231353Z 00000KT 10SM CLR 03/02 A3043 RMK AO2 SLP306 T00330017
Conditions at: KFAT (FRESNO , CA, US) observed 1353 UTC 23 January 2019
Temperature: 3.3°C (38°F)
Dewpoint: 1.7°C (35°F) [RH = 89%]
Pressure (altimeter): 30.43 inches Hg (1030.6 mb)
[Sea-level pressure: 1030.6 mb]
Winds: calm
Visibility: 10 or more miles (16+ km)
Ceiling: at least 12,000 feet AGL
Clouds: sky clear below 12,000 feet AGL
Weather: no significant weather observed at this time

METAR text: KFAT 231253Z 00000KT 9SM CLR 03/02 A3043 RMK AO2 SLP305 T00330022
Conditions at: KFAT (FRESNO , CA, US) observed 1253 UTC 23 January 2019
Temperature: 3.3°C (38°F)
Dewpoint: 2.2°C (36°F) [RH = 92%]
Pressure (altimeter): 30.43 inches Hg (1030.6 mb)
[Sea-level pressure: 1030.5 mb]
Winds: calm
Visibility: 9 miles (14 km)
Ceiling: at least 12,000 feet AGL
Clouds: sky clear below 12,000 feet AGL
Weather: no significant weather observed at this time

METAR text: KFAT 231153Z 00000KT 10SM CLR 04/02 A3044 RMK AO2 SLP306 T00390022 10072 20039 58002
Conditions at: KFAT (FRESNO , CA, US) observed 1153 UTC 23 January 2019
Temperature: 3.9°C (39°F)
Dewpoint: 2.2°C (36°F) [RH = 89%]
Pressure (altimeter): 30.44 inches Hg (1030.9 mb)
[Sea-level pressure: 1030.6 mb]
Winds: calm
Visibility: 10 or more miles (16+ km)
Ceiling: at least 12,000 feet AGL
Clouds: sky clear below 12,000 feet AGL
Weather: no significant weather observed at this time

METAR text: KFAT 231053Z 00000KT 10SM FEW200 04/03 A3044 RMK AO2 SLP309 T00390028
Conditions at: KFAT (FRESNO , CA, US) observed 1053 UTC 23 January 2019
Temperature: 3.9°C (39°F)
Dewpoint: 2.8°C (37°F) [RH = 93%]
Pressure (altimeter): 30.44 inches Hg (1030.9 mb)
[Sea-level pressure: 1030.9 mb]
Winds: calm
Visibility: 10 or more miles (16+ km)
Ceiling: at least 12,000 feet AGL
Clouds: few clouds at 20000 feet AGL
Weather: no significant weather observed at this time

METAR text: KFAT 230953Z 04003KT 10SM SCT200 05/03 A3045 RMK AO2 SLP311 T00500028
Conditions at: KFAT (FRESNO , CA, US) observed 0953 UTC 23 January 2019
Temperature: 5.0°C (41°F)
Dewpoint: 2.8°C (37°F) [RH = 86%]
Pressure (altimeter): 30.45 inches Hg (1031.2 mb)
[Sea-level pressure: 1031.1 mb]
Winds: from the NE (40 degrees) at 3 MPH (3 knots; 1.5 m/s)
Visibility: 10 or more miles (16+ km)
Ceiling: at least 12,000 feet AGL
Clouds: scattered clouds at 20000 feet AGL
Weather: no significant weather observed at this time

METAR text: KFAT 230853Z 08004KT 10SM FEW200 05/03 A3044 RMK AO2 SLP309 T00500033 50004
Conditions at: KFAT (FRESNO , CA, US) observed 0853 UTC 23 January 2019
Temperature: 5.0°C (41°F)
Dewpoint: 3.3°C (38°F) [RH = 89%]
Pressure (altimeter): 30.44 inches Hg (1030.9 mb)
[Sea-level pressure: 1030.9 mb]
Winds: from the E (80 degrees) at 5 MPH (4 knots; 2.1 m/s)
Visibility: 10 or more miles (16+ km)
Ceiling: at least 12,000 feet AGL
Clouds: few clouds at 20000 feet AGL
Weather: no significant weather observed at this time

METAR text: KFAT 230753Z 08003KT 8SM SCT200 06/04 A3045 RMK AO2 SLP312 T00560039 401330033
Conditions at: KFAT (FRESNO , CA, US) observed 0753 UTC 23 January 2019
Temperature: 5.6°C (42°F)
Dewpoint: 3.9°C (39°F) [RH = 89%]
Pressure (altimeter): 30.45 inches Hg (1031.2 mb)
[Sea-level pressure: 1031.2 mb]
Winds: from the E (80 degrees) at 3 MPH (3 knots; 1.5 m/s)
Visibility: 8 miles (13 km)
Ceiling: at least 12,000 feet AGL
Clouds: scattered clouds at 20000 feet AGL
Weather: no significant weather observed at this time

METAR text: KFAT 230653Z 00000KT 8SM FEW200 07/04 A3046 RMK AO2 SLP313 T00670044
Conditions at: KFAT (FRESNO , CA, US) observed 0653 UTC 23 January 2019
Temperature: 6.7°C (44°F)
Dewpoint: 4.4°C (40°F) [RH = 85%]
Pressure (altimeter): 30.46 inches Hg (1031.6 mb)
[Sea-level pressure: 1031.3 mb]
Winds: calm
Visibility: 8 miles (13 km)
Ceiling: at least 12,000 feet AGL
Clouds: few clouds at 20000 feet AGL
Weather: no significant weather observed at this time

METAR text: KFAT 230553Z 00000KT 7SM FEW200 07/04 A3043 RMK AO2 SLP304 T00670044 10133 20067 51005
Conditions at: KFAT (FRESNO , CA, US) observed 0553 UTC 23 January 2019
Temperature: 6.7°C (44°F)
Dewpoint: 4.4°C (40°F) [RH = 85%]
Pressure (altimeter): 30.43 inches Hg (1030.6 mb)
[Sea-level pressure: 1030.4 mb]
Winds: calm
Visibility: 7 miles (11 km)
Ceiling: at least 12,000 feet AGL
Clouds: few clouds at 20000 feet AGL
Weather: no significant weather observed at this time

METAR text: KFAT 230453Z 00000KT 9SM FEW200 08/05 A3043 RMK AO2 SLP304 T00830050
Conditions at: KFAT (FRESNO , CA, US) observed 0453 UTC 23 January 2019
Temperature: 8.3°C (47°F)
Dewpoint: 5.0°C (41°F) [RH = 80%]
Pressure (altimeter): 30.43 inches Hg (1030.6 mb)
[Sea-level pressure: 1030.4 mb]
Winds: calm
Visibility: 9 miles (14 km)
Ceiling: at least 12,000 feet AGL
Clouds: few clouds at 20000 feet AGL
Weather: no significant weather observed at this time

METAR text: KFAT 230353Z 00000KT 10SM FEW200 08/05 A3042 RMK AO2 SLP300 T00830050
Conditions at: KFAT (FRESNO , CA, US) observed 0353 UTC 23 January 2019
Temperature: 8.3°C (47°F)
Dewpoint: 5.0°C (41°F) [RH = 80%]
Pressure (altimeter): 30.42 inches Hg (1030.2 mb)
[Sea-level pressure: 1030.0 mb]
Winds: calm
Visibility: 10 or more miles (16+ km)
Ceiling: at least 12,000 feet AGL
Clouds: few clouds at 20000 feet AGL
Weather: no significant weather observed at this time

METAR text: KFAT 230253Z 00000KT 10SM CLR 10/04 A3041 RMK AO2 SLP299 T01000044 53008
Conditions at: KFAT (FRESNO , CA, US) observed 0253 UTC 23 January 2019
Temperature: 10.0°C (50°F)
Dewpoint: 4.4°C (40°F) [RH = 68%]
Pressure (altimeter): 30.41 inches Hg (1029.9 mb)
[Sea-level pressure: 1029.9 mb]
Winds: calm
Visibility: 10 or more miles (16+ km)
Ceiling: at least 12,000 feet AGL
Clouds: sky clear below 12,000 feet AGL
Weather: no significant weather observed at this time

METAR text: KFAT 230153Z 00000KT 10SM FEW150 SCT200 BKN250 11/05 A3040 RMK AO2 SLP295 T01110050
Conditions at: KFAT (FRESNO , CA, US) observed 0153 UTC 23 January 2019
Temperature: 11.1°C (52°F)
Dewpoint: 5.0°C (41°F) [RH = 66%]
Pressure (altimeter): 30.40 inches Hg (1029.5 mb)
[Sea-level pressure: 1029.5 mb]
Winds: calm
Visibility: 10 or more miles (16+ km)
Ceiling: 25000 feet AGL
Clouds: few clouds at 15000 feet AGL
scattered clouds at 20000 feet AGL
broken clouds at 25000 feet AGL
Weather: no significant weather observed at this time

METAR text: KFAT 230053Z 00000KT 10SM SCT200 BKN250 13/04 A3039 RMK AO2 SLP292 T01280039
Conditions at: KFAT (FRESNO , CA, US) observed 0053 UTC 23 January 2019
Temperature: 12.8°C (55°F)
Dewpoint: 3.9°C (39°F) [RH = 55%]
Pressure (altimeter): 30.39 inches Hg (1029.2 mb)
[Sea-level pressure: 1029.2 mb]
Winds: calm
Visibility: 10 or more miles (16+ km)
Ceiling: 25000 feet AGL
Clouds: scattered clouds at 20000 feet AGL
broken clouds at 25000 feet AGL
Weather: no significant weather observed at this time

METAR text: KFAT 222353Z 00000KT 10SM FEW035 FEW130 SCT200 13/04 A3039 RMK AO2 SLP290 CLDS TPG MTNS DSNT NE E T01280044 10128 20083 55001
Conditions at: KFAT (FRESNO , CA, US) observed 2353 UTC 22 January 2019
Temperature: 12.8°C (55°F)
Dewpoint: 4.4°C (40°F) [RH = 57%]
Pressure (altimeter): 30.39 inches Hg (1029.2 mb)
[Sea-level pressure: 1029.0 mb]
Winds: calm
Visibility: 10 or more miles (16+ km)
Ceiling: at least 12,000 feet AGL
Clouds: few clouds at 3500 feet AGL
few clouds at 13000 feet AGL
scattered clouds at 20000 feet AGL
Weather: no significant weather observed at this time

METAR text: KFAT 222253Z 13003KT 10SM FEW035 BKN200 12/05 A3038 RMK AO2 SLP289 CLDS TPG MTNS DSNT E T01220050
Conditions at: KFAT (FRESNO , CA, US) observed 2253 UTC 22 January 2019
Temperature: 12.2°C (54°F)
Dewpoint: 5.0°C (41°F) [RH = 61%]
Pressure (altimeter): 30.38 inches Hg (1028.9 mb)
[Sea-level pressure: 1028.9 mb]
Winds: from the SE (130 degrees) at 3 MPH (3 knots; 1.5 m/s)
Visibility: 10 or more miles (16+ km)
Ceiling: 20000 feet AGL
Clouds: few clouds at 3500 feet AGL
broken clouds at 20000 feet AGL
Weather: no significant weather observed at this time

METAR text: KFAT 222153Z 11003KT 10SM SCT030 BKN200 12/05 A3038 RMK AO2 SLP288 CLDS TPG MTNS DSNT E T01220050
Conditions at: KFAT (FRESNO , CA, US) observed 2153 UTC 22 January 2019
Temperature: 12.2°C (54°F)
Dewpoint: 5.0°C (41°F) [RH = 61%]
Pressure (altimeter): 30.38 inches Hg (1028.9 mb)
[Sea-level pressure: 1028.8 mb]
Winds: from the ESE (110 degrees) at 3 MPH (3 knots; 1.5 m/s)
Visibility: 10 or more miles (16+ km)
Ceiling: 20000 feet AGL
Clouds: scattered clouds at 3000 feet AGL
broken clouds at 20000 feet AGL
Weather: no significant weather observed at this time

METAR text: KFAT 222053Z 11006KT 10SM FEW040 BKN200 12/06 A3039 RMK AO2 SLP291 CLDS TPG MTNS DSNT E T01220056 58004
Conditions at: KFAT (FRESNO , CA, US) observed 2053 UTC 22 January 2019
Temperature: 12.2°C (54°F)
Dewpoint: 5.6°C (42°F) [RH = 64%]
Pressure (altimeter): 30.39 inches Hg (1029.2 mb)
[Sea-level pressure: 1029.1 mb]
Winds: from the ESE (110 degrees) at 7 MPH (6 knots; 3.1 m/s)
Visibility: 10 or more miles (16+ km)
Ceiling: 20000 feet AGL
Clouds: few clouds at 4000 feet AGL
broken clouds at 20000 feet AGL
Weather: no significant weather observed at this time

METAR text: KFAT 221953Z 11003KT 10SM FEW040 BKN200 11/05 A3040 RMK AO2 SLP294 CLDS TPG MTNS DSNT E T01110050
Conditions at: KFAT (FRESNO , CA, US) observed 1953 UTC 22 January 2019
Temperature: 11.1°C (52°F)
Dewpoint: 5.0°C (41°F) [RH = 66%]
Pressure (altimeter): 30.40 inches Hg (1029.5 mb)
[Sea-level pressure: 1029.4 mb]
Winds: from the ESE (110 degrees) at 3 MPH (3 knots; 1.5 m/s)
Visibility: 10 or more miles (16+ km)
Ceiling: 20000 feet AGL
Clouds: few clouds at 4000 feet AGL
broken clouds at 20000 feet AGL
Weather: no significant weather observed at this time

METAR text: KFAT 221853Z 11005KT 10SM FEW040 SCT200 10/05 A3041 RMK AO2 SLP298 CLDS TPG MTNS DSNT E T01000050
Conditions at: KFAT (FRESNO , CA, US) observed 1853 UTC 22 January 2019
Temperature: 10.0°C (50°F)
Dewpoint: 5.0°C (41°F) [RH = 71%]
Pressure (altimeter): 30.41 inches Hg (1029.9 mb)
[Sea-level pressure: 1029.8 mb]
Winds: from the ESE (110 degrees) at 6 MPH (5 knots; 2.6 m/s)
Visibility: 10 or more miles (16+ km)
Ceiling: at least 12,000 feet AGL
Clouds: few clouds at 4000 feet AGL
scattered clouds at 20000 feet AGL
Weather: no significant weather observed at this time

METAR text: KFAT 221753Z 12004KT 10SM FEW040 SCT200 08/04 A3040 RMK AO2 SLP295 CLDS TPG MTNS DSNT N-E-S T00830044 10083 20033 51012
Conditions at: KFAT (FRESNO , CA, US) observed 1753 UTC 22 January 2019
Temperature: 8.3°C (47°F)
Dewpoint: 4.4°C (40°F) [RH = 76%]
Pressure (altimeter): 30.40 inches Hg (1029.5 mb)
[Sea-level pressure: 1029.5 mb]
Winds: from the ESE (120 degrees) at 5 MPH (4 knots; 2.1 m/s)
Visibility: 10 or more miles (16+ km)
Ceiling: at least 12,000 feet AGL
Clouds: few clouds at 4000 feet AGL
scattered clouds at 20000 feet AGL
Weather: no significant weather observed at this time

METAR text: KFAT 221653Z 13004KT 10SM FEW040 SCT200 07/04 A3039 RMK AO2 SLP291 CLDS TPG MTNS DSNT E T00720039
Conditions at: KFAT (FRESNO , CA, US) observed 1653 UTC 22 January 2019
Temperature: 7.2°C (45°F)
Dewpoint: 3.9°C (39°F) [RH = 80%]
Pressure (altimeter): 30.39 inches Hg (1029.2 mb)
[Sea-level pressure: 1029.1 mb]
Winds: from the SE (130 degrees) at 5 MPH (4 knots; 2.1 m/s)
Visibility: 10 or more miles (16+ km)
Ceiling: at least 12,000 feet AGL
Clouds: few clouds at 4000 feet AGL
scattered clouds at 20000 feet AGL
Weather: no significant weather observed at this time

METAR text: KFAT 221553Z 11003KT 6SM BR FEW040 SCT180 04/03 A3038 RMK AO2 SLP289 T00440033
Conditions at: KFAT (FRESNO , CA, US) observed 1553 UTC 22 January 2019
Temperature: 4.4°C (40°F)
Dewpoint: 3.3°C (38°F) [RH = 93%]
Pressure (altimeter): 30.38 inches Hg (1028.9 mb)
[Sea-level pressure: 1028.9 mb]
Winds: from the ESE (110 degrees) at 3 MPH (3 knots; 1.5 m/s)
Visibility: 6 miles (10 km)
Ceiling: at least 12,000 feet AGL
Clouds: few clouds at 4000 feet AGL
scattered clouds at 18000 feet AGL
Weather: BR  (mist)

METAR text: KFAT 221453Z 00000KT 8SM SCT080 SCT150 03/02 A3037 RMK AO2 SLP284 T00330022 53020
Conditions at: KFAT (FRESNO , CA, US) observed 1453 UTC 22 January 2019
Temperature: 3.3°C (38°F)
Dewpoint: 2.2°C (36°F) [RH = 92%]
Pressure (altimeter): 30.37 inches Hg (1028.5 mb)
[Sea-level pressure: 1028.4 mb]
Winds: calm
Visibility: 8 miles (13 km)
Ceiling: at least 12,000 feet AGL
Clouds: scattered clouds at 8000 feet AGL
scattered clouds at 15000 feet AGL
Weather: no significant weather observed at this time

METAR text: KFAT 221353Z 00000KT 10SM CLR 04/02 A3034 RMK AO2 SLP273 T00390022
Conditions at: KFAT (FRESNO , CA, US) observed 1353 UTC 22 January 2019
Temperature: 3.9°C (39°F)
Dewpoint: 2.2°C (36°F) [RH = 89%]
Pressure (altimeter): 30.34 inches Hg (1027.5 mb)
[Sea-level pressure: 1027.3 mb]
Winds: calm
Visibility: 10 or more miles (16+ km)
Ceiling: at least 12,000 feet AGL
Clouds: sky clear below 12,000 feet AGL
Weather: no significant weather observed at this time

METAR text: KFAT 221253Z 05003KT 10SM CLR 04/03 A3031 RMK AO2 SLP264 T00390028
Conditions at: KFAT (FRESNO , CA, US) observed 1253 UTC 22 January 2019
Temperature: 3.9°C (39°F)
Dewpoint: 2.8°C (37°F) [RH = 93%]
Pressure (altimeter): 30.31 inches Hg (1026.5 mb)
[Sea-level pressure: 1026.4 mb]
Winds: from the NE (50 degrees) at 3 MPH (3 knots; 1.5 m/s)
Visibility: 10 or more miles (16+ km)
Ceiling: at least 12,000 feet AGL
Clouds: sky clear below 12,000 feet AGL
Weather: no significant weather observed at this time

METAR text: KFAT 221153Z 00000KT 10SM CLR 04/03 A3031 RMK AO2 SLP263 T00390028 10078 20039 51015
Conditions at: KFAT (FRESNO , CA, US) observed 1153 UTC 22 January 2019
Temperature: 3.9°C (39°F)
Dewpoint: 2.8°C (37°F) [RH = 93%]
Pressure (altimeter): 30.31 inches Hg (1026.5 mb)
[Sea-level pressure: 1026.3 mb]
Winds: calm
Visibility: 10 or more miles (16+ km)
Ceiling: at least 12,000 feet AGL
Clouds: sky clear below 12,000 feet AGL
Weather: no significant weather observed at this time

METAR text: KFAT 221053Z 00000KT 10SM CLR 04/03 A3030 RMK AO2 SLP262 T00390028
Conditions at: KFAT (FRESNO , CA, US) observed 1053 UTC 22 January 2019
Temperature: 3.9°C (39°F)
Dewpoint: 2.8°C (37°F) [RH = 93%]
Pressure (altimeter): 30.30 inches Hg (1026.2 mb)
[Sea-level pressure: 1026.2 mb]
Winds: calm
Visibility: 10 or more miles (16+ km)
Ceiling: at least 12,000 feet AGL
Clouds: sky clear below 12,000 feet AGL
Weather: no significant weather observed at this time

METAR text: KFAT 220953Z 00000KT 10SM CLR 05/03 A3028 RMK AO2 SLP254 T00500033
Conditions at: KFAT (FRESNO , CA, US) observed 0953 UTC 22 January 2019
Temperature: 5.0°C (41°F)
Dewpoint: 3.3°C (38°F) [RH = 89%]
Pressure (altimeter): 30.28 inches Hg (1025.5 mb)
[Sea-level pressure: 1025.4 mb]
Winds: calm
Visibility: 10 or more miles (16+ km)
Ceiling: at least 12,000 feet AGL
Clouds: sky clear below 12,000 feet AGL
Weather: no significant weather observed at this time

METAR text: KFAT 220853Z 00000KT 10SM CLR 06/04 A3026 RMK AO2 SLP248 T00560039 50007
Conditions at: KFAT (FRESNO , CA, US) observed 0853 UTC 22 January 2019
Temperature: 5.6°C (42°F)
Dewpoint: 3.9°C (39°F) [RH = 89%]
Pressure (altimeter): 30.26 inches Hg (1024.8 mb)
[Sea-level pressure: 1024.8 mb]
Winds: calm
Visibility: 10 or more miles (16+ km)
Ceiling: at least 12,000 feet AGL
Clouds: sky clear below 12,000 feet AGL
Weather: no significant weather observed at this time

METAR text: KFAT 220753Z 00000KT 10SM CLR 06/04 A3027 RMK AO2 SLP248 T00610039 401330061
Conditions at: KFAT (FRESNO , CA, US) observed 0753 UTC 22 January 2019
Temperature: 6.1°C (43°F)
Dewpoint: 3.9°C (39°F) [RH = 86%]
Pressure (altimeter): 30.27 inches Hg (1025.1 mb)
[Sea-level pressure: 1024.8 mb]
Winds: calm
Visibility: 10 or more miles (16+ km)
Ceiling: at least 12,000 feet AGL
Clouds: sky clear below 12,000 feet AGL
Weather: no significant weather observed at this time

METAR text: KFAT 220653Z 06003KT 10SM CLR 07/04 A3025 RMK AO2 SLP245 T00670044
Conditions at: KFAT (FRESNO , CA, US) observed 0653 UTC 22 January 2019
Temperature: 6.7°C (44°F)
Dewpoint: 4.4°C (40°F) [RH = 85%]
Pressure (altimeter): 30.25 inches Hg (1024.5 mb)
[Sea-level pressure: 1024.5 mb]
Winds: from the ENE (60 degrees) at 3 MPH (3 knots; 1.5 m/s)
Visibility: 10 or more miles (16+ km)
Ceiling: at least 12,000 feet AGL
Clouds: sky clear below 12,000 feet AGL
Weather: no significant weather observed at this time

METAR text: KFAT 220553Z 29004KT 10SM CLR 08/04 A3024 RMK AO2 SLP240 T00780044 10133 20078 51008
Conditions at: KFAT (FRESNO , CA, US) observed 0553 UTC 22 January 2019
Temperature: 7.8°C (46°F)
Dewpoint: 4.4°C (40°F) [RH = 79%]
Pressure (altimeter): 30.24 inches Hg (1024.1 mb)
[Sea-level pressure: 1024.0 mb]
Winds: from the WNW (290 degrees) at 5 MPH (4 knots; 2.1 m/s)
Visibility: 10 or more miles (16+ km)
Ceiling: at least 12,000 feet AGL
Clouds: sky clear below 12,000 feet AGL
Weather: no significant weather observed at this time

METAR text: KFAT 220453Z 05004KT 10SM FEW080 08/04 A3023 RMK AO2 SLP238 T00830039
Conditions at: KFAT (FRESNO , CA, US) observed 0453 UTC 22 January 2019
Temperature: 8.3°C (47°F)
Dewpoint: 3.9°C (39°F) [RH = 74%]
Pressure (altimeter): 30.23 inches Hg (1023.8 mb)
[Sea-level pressure: 1023.8 mb]
Winds: from the NE (50 degrees) at 5 MPH (4 knots; 2.1 m/s)
Visibility: 10 or more miles (16+ km)
Ceiling: at least 12,000 feet AGL
Clouds: few clouds at 8000 feet AGL
Weather: no significant weather observed at this time

METAR text: KFAT 220353Z 33005KT 10SM FEW060 10/04 A3023 RMK AO2 SLP236 T01000044
Conditions at: KFAT (FRESNO , CA, US) observed 0353 UTC 22 January 2019
Temperature: 10.0°C (50°F)
Dewpoint: 4.4°C (40°F) [RH = 68%]
Pressure (altimeter): 30.23 inches Hg (1023.8 mb)
[Sea-level pressure: 1023.6 mb]
Winds: from the NNW (330 degrees) at 6 MPH (5 knots; 2.6 m/s)
Visibility: 10 or more miles (16+ km)
Ceiling: at least 12,000 feet AGL
Clouds: few clouds at 6000 feet AGL
Weather: no significant weather observed at this time

METAR text: KFAT 220253Z 30007KT 10SM FEW060 11/04 A3022 RMK AO2 SLP232 T01060044 51011
Conditions at: KFAT (FRESNO , CA, US) observed 0253 UTC 22 January 2019
Temperature: 10.6°C (51°F)
Dewpoint: 4.4°C (40°F) [RH = 65%]
Pressure (altimeter): 30.22 inches Hg (1023.5 mb)
[Sea-level pressure: 1023.2 mb]
Winds: from the WNW (300 degrees) at 8 MPH (7 knots; 3.6 m/s)
Visibility: 10 or more miles (16+ km)
Ceiling: at least 12,000 feet AGL
Clouds: few clouds at 6000 feet AGL
Weather: no significant weather observed at this time

Forecast for: KFAT (FRESNO , CA, US)
Text: KFAT 231139Z 2312/2412 VRB03KT P6SM FEW200
Forecast period: 1200 to 1900 UTC 23 January 2019
Forecast type: FROM: standard forecast or significant change
Winds: variable direction winds at 3 MPH (3 knots; 1.5 m/s)
Visibility: 6 or more miles 10+ km)
Ceiling: at least 12,000 feet AGL
Clouds: few clouds at 20000 feet AGL
Weather: no significant weather forecast for this period
Text: TEMPO 2313/2317 4SM BR
Forecast period: 1300 to 1700 UTC 23 January 2019
Forecast type: TEMPORARY: The following changes expected for less than half the time period
Visibility: 4 miles (6 km)
Ceiling: unknown
Clouds: missing
Weather: BR  (mist)
Text: FM231900 VRB03KT P6SM SCT200
Forecast period: 1900 UTC 23 January 2019 to 0900 UTC 24 January 2019
Forecast type: FROM: standard forecast or significant change
Winds: variable direction winds at 3 MPH (3 knots; 1.5 m/s)
Visibility: 6 or more miles 10+ km)
Ceiling: at least 12,000 feet AGL
Clouds: scattered clouds at 20000 feet AGL
Weather: no significant weather forecast for this period
Text: FM240900 08003KT 2SM BR SKC
Forecast period: 0900 to 1200 UTC 24 January 2019
Forecast type: FROM: standard forecast or significant change
Winds: from the E (80 degrees) at 3 MPH (3 knots; 1.5 m/s)
Visibility: 2.00 miles (3.22 km)
Clouds: clear skies
Weather: BR  (mist)